Ava, MO (65608)

9:38 AM CDT on July 13, 2014 (GMT -0500)
KMOAVA4 Elev 1273 ft | 36.96 °N, 92.67 °W | Change Station

Current weather conditions updated 11 seconds ago

Mostly Cloudy
Mostly Cloudy
74.7 °F
Feels Like 75 °F
N
0.0
Wind Variable Wind from NW
Gusts 0.0 mph

Today is forecast to be Warmer than yesterday. Thunderstorms tonight.

Today
High -- | Low -- °F
--% Chance of Precip.
Yesterday
High -- | Low -- °F
Precip. -- in
6:01 AM 8:30 PM
Full, 98% visible
Pressure 30.04 in
Visibility 7.0 miles
Clouds Mostly Cloudy 10000 ft
Heat Index 75 °F
Dew Point 68 °F
Humidity 78%
Rainfall 0.00 in
Snow Depth Not available.
UV 2 out of 12
Pollen 4.60 out of 12
Air Quality Not available.
Flu Activity Sporadic
METAR KBPK 131353Z AUTO 24004KT 7SM BKN100 26/22 A3007 RMK AO2 SLP173 T02610217

More Conditions Fewer Conditions

Pressure 30.04 in
Visibility 7.0 miles
Clouds Mostly Cloudy 10000 ft
Heat Index 75 °F
Dew Point 68 °F
Humidity 78%
Rainfall 0.00 in
Snow Depth Not available.
UV 2 out of 12
Pollen 4.60 out of 12
Air Quality Not available.
Flu Activity Sporadic
METAR KBPK 131353Z AUTO 24004KT 7SM BKN100 26/22 A3007 RMK AO2 SLP173 T02610217

More Conditions Fewer Conditions

10-Day Weather Forecast

Almanac

Astronomy

Jul. 13, 2014 Rise Set
Actual Time 6:01 AM CDT 8:30 PM CDT
Civil Twilight 5:31 AM CDT 9:00 PM CDT
Nautical Twilight 4:54 AM CDT 9:38 PM CDT
Astronomical Twilight 4:12 AM CDT 10:19 PM CDT
Moon 9:23 PM CDT 7:29 AM CDT
Length of Visible Light 15h 29m
Length of Day
14h 29m
Tomorrow will be 1m 8s shorter.
Full, 98% of the Moon is Illuminated
Today
Full
Jul 18
Last Quarter
Jul 26
New
Aug 3
First Quarter
Aug 10
Full

Today's Extremes

State Highs State Lows

Community

WunderPhotos

Upload Photos

1,733,220 photos uploaded!

Nearby

Snow Depth

Station Depth Elevation
No new snow has been reported.

Earthquake Activity

City Distance Mag. Time & Date
No recent earthquake activity has been reported nearby.
Minimum magnitude displayed is 2.5.

Coastal Water Temperatures

Place Temperature
No Stations Reporting

Nearby Weather Stations

Station Location Temp. Heat Index Dew Point Humidity Wind Precip. Elev Updated Type
Ava, MO 74.7 °F 75 °F 68 °F 78% NW  at  0.0 mph 0.00 in / hr 1273 ft 9:38 AM CDT Rapid Fire
Ava, MO 76.3 °F 77 °F 72 °F 85% NW  at  1.0 mph 0.00 in / hr 1365 ft 9:38 AM CDT Normal
Jackson Mill, Ava, MO 74.7 °F 74 °F 72 °F 90% NNW  at  2.2 mph - / hr 1181 ft 9:26 AM CDT Normal
Rome, Missouri, Ava, MO 76.9 °F 78 °F 76 °F 96% SE  at  0.0 mph 0.00 in / hr 981 ft 9:35 AM CDT Normal
Vanzant, MO, Missouri, MO 77.2 °F 79 °F 72 °F 84% West  at  6.0 mph 0.00 in / hr 1191 ft 9:38 AM CDT Rapid Fire
RAWS AVA MO, Rueter, MO 78 °F 80 °F 68 °F 71% West  at  7 mph 0.00 in / hr 1100 ft 8:53 AM CDT MADIS

Show More Stations Show Fewer Stations